createdAt,value
2023-01-29T00:03:57.960Z,55.45
2023-01-29T00:07:59.698Z,56.97
2023-01-29T00:12:01.641Z,57.92
2023-01-29T00:16:04.249Z,58.58
2023-01-29T00:20:06.834Z,55.58
2023-01-29T00:24:08.650Z,54.00
2023-01-29T00:28:10.453Z,53.72
2023-01-29T00:32:12.367Z,54.33
2023-01-29T00:36:16.119Z,56.92
2023-01-29T00:40:18.213Z,52.17
2023-01-29T00:44:38.819Z,53.58
2023-01-29T00:48:40.909Z,52.72
2023-01-29T00:52:42.595Z,57.90
2023-01-29T00:56:44.238Z,52.05
2023-01-29T01:00:45.967Z,55.22
2023-01-29T01:04:47.688Z,52.83
2023-01-29T01:09:07.874Z,52.08
2023-01-29T01:13:09.604Z,54.50
2023-01-29T01:17:11.334Z,53.95
2023-01-29T01:21:13.161Z,55.00
2023-01-29T01:25:15.429Z,50.12
2023-01-29T01:29:17.229Z,51.72
2023-01-29T01:33:18.941Z,53.20
2023-01-29T01:37:20.734Z,54.00
2023-01-29T01:41:23.933Z,53.33
2023-01-29T01:45:34.139Z,61.17
2023-01-29T01:49:35.897Z,54.45
2023-01-29T01:53:43.281Z,62.85
2023-01-29T01:57:48.436Z,51.65
2023-01-29T02:01:54.256Z,54.53
2023-01-29T02:06:17.464Z,58.63
2023-01-29T02:10:20.244Z,58.25
2023-01-29T02:14:22.063Z,52.33
2023-01-29T02:18:23.770Z,49.55
2023-01-29T02:23:03.849Z,50.12
2023-01-29T02:27:28.560Z,55.40
2023-01-29T02:31:41.157Z,50.78
2023-01-29T02:36:14.931Z,45.35
2023-01-29T02:40:44.005Z,54.95
2023-01-29T02:44:53.458Z,53.40
2023-01-29T02:49:04.725Z,49.20
2023-01-29T02:53:13.544Z,52.28
2023-01-29T02:57:24.399Z,51.95
2023-01-29T03:01:49.790Z,50.60
2023-01-29T03:06:20.608Z,56.40
2023-01-29T03:10:40.795Z,55.05
2023-01-29T03:15:01.632Z,60.15
2023-01-29T03:19:08.776Z,66.18
2023-01-29T03:23:23.769Z,57.55
2023-01-29T03:27:50.117Z,55.28
2023-01-29T03:32:07.889Z,57.93
2023-01-29T03:36:16.400Z,55.83
2023-01-29T03:40:18.540Z,51.83
2023-01-29T03:44:40.277Z,54.42
2023-01-29T03:48:54.241Z,59.38
2023-01-29T03:53:14.200Z,53.75
2023-01-29T03:57:31.429Z,55.97
2023-01-29T04:01:47.507Z,59.75
2023-01-29T04:06:09.682Z,60.53
2023-01-29T04:10:18.481Z,55.60
2023-01-29T04:14:20.681Z,52.80
2023-01-29T04:18:24.063Z,62.13
2023-01-29T04:22:31.916Z,58.47
2023-01-29T04:26:48.743Z,58.53
2023-01-29T04:30:59.481Z,60.85
2023-01-29T04:35:31.537Z,64.57
2023-01-29T04:39:44.638Z,65.10
2023-01-29T04:44:03.340Z,59.70
2023-01-29T04:48:08.061Z,61.00
2023-01-29T04:52:41.587Z,62.95
2023-01-29T04:56:54.495Z,62.30
2023-01-29T05:00:58.758Z,59.38
2023-01-29T05:05:00.810Z,58.47
2023-01-29T05:09:03.196Z,56.97
2023-01-29T05:13:08.522Z,56.50
2023-01-29T05:17:15.780Z,57.15
2023-01-29T05:21:18.190Z,61.28
2023-01-29T05:25:29.271Z,59.15
2023-01-29T05:29:31.249Z,58.08
2023-01-29T05:33:33.158Z,62.38
2023-01-29T05:37:34.914Z,64.60
2023-01-29T05:41:36.710Z,60.05
2023-01-29T05:45:38.427Z,59.38
2023-01-29T05:49:40.301Z,61.78
2023-01-29T05:53:41.987Z,57.30
2023-01-29T05:57:43.711Z,59.60
2023-01-29T06:01:45.511Z,57.25
2023-01-29T06:05:47.252Z,64.30
2023-01-29T06:09:48.985Z,55.65
2023-01-29T06:13:50.950Z,59.13
2023-01-29T06:17:56.862Z,61.28
2023-01-29T06:21:58.646Z,61.87
2023-01-29T06:26:02.312Z,61.63
2023-01-29T06:30:05.730Z,61.20
2023-01-29T06:34:08.179Z,62.80
2023-01-29T06:38:09.790Z,54.80
2023-01-29T06:42:11.492Z,59.30
2023-01-29T06:46:13.642Z,57.22
2023-01-29T06:50:15.771Z,60.00
2023-01-29T06:54:17.810Z,56.85
2023-01-29T06:58:20.698Z,56.17
2023-01-29T07:02:22.736Z,59.33
2023-01-29T07:06:28.845Z,57.15
2023-01-29T07:10:31.001Z,55.70
2023-01-29T07:14:32.735Z,54.78
2023-01-29T07:18:34.455Z,54.78
2023-01-29T07:22:36.425Z,57.05
2023-01-29T07:26:38.075Z,55.05
2023-01-29T07:30:39.732Z,55.12
2023-01-29T07:34:41.440Z,60.80
2023-01-29T07:38:43.260Z,59.45
2023-01-29T07:42:45.429Z,54.33
2023-01-29T07:46:47.184Z,58.17
2023-01-29T07:50:56.747Z,56.05
2023-01-29T07:54:58.681Z,60.33
2023-01-29T07:59:00.406Z,57.42
2023-01-29T08:03:04.022Z,62.08
2023-01-29T08:07:05.780Z,61.60
2023-01-29T08:11:07.503Z,60.17
2023-01-29T08:15:09.736Z,60.90
2023-01-29T08:19:11.419Z,56.83
2023-01-29T08:23:15.228Z,59.05
2023-01-29T08:27:16.896Z,55.58
2023-01-29T08:31:20.694Z,61.03
2023-01-29T08:35:22.615Z,58.00
2023-01-29T08:39:24.354Z,51.90
2023-01-29T08:43:26.034Z,58.45
2023-01-29T08:47:28.722Z,56.85
2023-01-29T08:51:31.201Z,57.40
2023-01-29T08:55:32.891Z,56.58
2023-01-29T08:59:34.595Z,55.08
2023-01-29T09:03:37.033Z,53.42
2023-01-29T09:07:38.688Z,53.33
2023-01-29T09:11:40.582Z,52.22
2023-01-29T09:15:42.201Z,54.72
2023-01-29T09:19:43.838Z,56.35
2023-01-29T09:23:45.540Z,56.58
2023-01-29T09:27:47.228Z,56.95
2023-01-29T09:31:49.047Z,57.08
2023-01-29T09:35:50.790Z,53.72
2023-01-29T09:39:52.467Z,56.05
2023-01-29T09:44:01.991Z,54.67
2023-01-29T09:48:05.708Z,54.55
2023-01-29T09:52:25.169Z,55.35
2023-01-29T09:56:28.879Z,59.08
2023-01-29T10:00:51.854Z,55.00
2023-01-29T10:04:56.548Z,56.08
2023-01-29T10:09:13.708Z,57.75
2023-01-29T10:17:35.328Z,53.72
2023-01-29T10:22:14.685Z,51.33
2023-01-29T10:26:18.448Z,55.45
2023-01-29T10:30:40.036Z,53.58
2023-01-29T10:35:17.452Z,47.83
2023-01-29T10:39:21.881Z,50.40
2023-01-29T10:43:47.580Z,48.15
2023-01-29T10:48:26.247Z,55.05
2023-01-29T10:53:13.557Z,52.30
2023-01-29T10:57:31.583Z,52.63
2023-01-29T11:01:33.332Z,50.90
2023-01-29T11:05:44.173Z,49.35
2023-01-29T11:09:50.199Z,52.13
2023-01-29T11:14:06.843Z,51.87
2023-01-29T11:18:15.389Z,48.90
2023-01-29T11:22:20.220Z,49.38
2023-01-29T11:26:23.784Z,51.35
2023-01-29T11:30:37.210Z,53.83
2023-01-29T11:35:00.736Z,51.72
2023-01-29T11:39:08.547Z,47.65
2023-01-29T11:43:21.867Z,52.08
2023-01-29T11:47:28.461Z,51.42
2023-01-29T11:51:30.473Z,54.03
2023-01-29T11:55:49.878Z,50.55
2023-01-29T11:59:54.815Z,52.60
2023-01-29T12:03:56.712Z,52.15
2023-01-29T12:08:00.757Z,55.45
2023-01-29T12:12:29.643Z,50.75
2023-01-29T12:16:39.337Z,49.63
2023-01-29T12:20:54.500Z,52.00
2023-01-29T12:25:22.522Z,51.37
2023-01-29T12:29:30.016Z,48.25
2023-01-29T12:33:34.674Z,50.50
2023-01-29T12:37:54.326Z,51.65
2023-01-29T12:42:04.667Z,50.55
2023-01-29T12:46:14.226Z,49.65
2023-01-29T12:50:32.285Z,53.95
2023-01-29T12:54:51.865Z,54.17
2023-01-29T12:58:55.472Z,54.00
2023-01-29T13:03:19.469Z,49.67
2023-01-29T13:07:28.233Z,47.55
2023-01-29T13:11:35.231Z,57.55
2023-01-29T13:19:47.218Z,48.30
2023-01-29T13:23:55.582Z,49.05
2023-01-29T13:27:58.059Z,51.53
2023-01-29T13:32:03.308Z,53.58
2023-01-29T13:36:05.613Z,52.08
2023-01-29T13:40:08.356Z,52.45
2023-01-29T13:44:34.204Z,53.97
2023-01-29T13:48:46.676Z,55.03
2023-01-29T13:53:02.155Z,50.38
2023-01-29T13:57:04.175Z,52.83
2023-01-29T14:01:05.876Z,57.62
2023-01-29T14:05:29.231Z,56.10
2023-01-29T14:09:33.991Z,51.33
2023-01-29T14:13:36.569Z,51.13
2023-01-29T14:17:38.809Z,45.80
2023-01-29T14:21:41.056Z,48.80
2023-01-29T14:25:42.745Z,50.20
2023-01-29T14:29:44.726Z,57.22
2023-01-29T14:33:46.481Z,52.80
2023-01-29T14:37:51.320Z,49.17
2023-01-29T14:41:53.423Z,54.58
2023-01-29T14:45:55.139Z,47.65
2023-01-29T14:49:59.068Z,50.53
2023-01-29T14:54:25.146Z,47.22
2023-01-29T14:58:37.882Z,47.55
2023-01-29T15:02:44.468Z,49.08
2023-01-29T15:06:59.066Z,51.05
2023-01-29T15:11:25.459Z,49.30
2023-01-29T15:15:46.395Z,50.28
2023-01-29T15:19:49.307Z,49.58
2023-01-29T15:24:04.474Z,52.15
2023-01-29T15:28:10.976Z,48.03
2023-01-29T15:32:29.552Z,47.65
2023-01-29T15:36:32.021Z,44.17
2023-01-29T15:40:34.569Z,51.40
2023-01-29T15:44:36.797Z,44.08
2023-01-29T15:48:41.331Z,43.65
2023-01-29T15:52:43.316Z,41.60
2023-01-29T15:56:48.234Z,42.65
2023-01-29T16:00:53.512Z,39.88
2023-01-29T16:04:55.646Z,35.53
2023-01-29T16:08:59.197Z,37.05
2023-01-29T16:13:01.143Z,38.28
2023-01-29T16:17:26.503Z,30.25
2023-01-29T16:21:38.078Z,31.80
2023-01-29T16:25:39.793Z,31.23
2023-01-29T16:29:41.629Z,31.05
2023-01-29T16:33:45.250Z,26.77
2023-01-29T16:37:49.523Z,32.72
2023-01-29T16:42:21.353Z,29.25
2023-01-29T16:46:28.182Z,30.75
2023-01-29T16:50:46.350Z,33.03
2023-01-29T16:55:20.019Z,28.58
2023-01-29T16:59:36.100Z,31.25
2023-01-29T17:03:39.092Z,33.70
2023-01-29T17:07:45.906Z,29.95
2023-01-29T17:11:50.224Z,33.05
2023-01-29T17:15:51.941Z,31.65
2023-01-29T17:19:53.625Z,32.03
2023-01-29T17:23:55.394Z,30.58
2023-01-29T17:28:00.639Z,31.02
2023-01-29T17:32:02.423Z,30.67
2023-01-29T17:36:04.385Z,33.92
2023-01-29T17:40:25.848Z,31.08
2023-01-29T17:44:27.548Z,33.40
2023-01-29T17:48:30.505Z,34.22
2023-01-29T17:52:32.367Z,30.30
2023-01-29T17:56:34.013Z,32.60
2023-01-29T18:00:35.791Z,33.13
2023-01-29T18:04:38.640Z,30.90
2023-01-29T18:08:40.368Z,33.05
2023-01-29T18:12:42.094Z,32.92
2023-01-29T18:16:44.823Z,32.20
2023-01-29T18:20:46.937Z,32.92
2023-01-29T18:24:48.634Z,32.08
2023-01-29T18:28:50.321Z,31.08
2023-01-29T18:32:53.183Z,31.17
2023-01-29T18:36:54.816Z,34.38
2023-01-29T18:41:04.227Z,30.08
2023-01-29T18:45:07.411Z,35.42
2023-01-29T18:49:09.048Z,30.70
2023-01-29T18:53:10.721Z,31.60
2023-01-29T18:57:13.595Z,29.23
2023-01-29T19:01:18.057Z,32.65
2023-01-29T19:05:22.704Z,36.30
2023-01-29T19:09:24.529Z,34.65
2023-01-29T19:13:26.862Z,37.25
2023-01-29T19:17:28.570Z,33.72
2023-01-29T19:21:35.649Z,37.17
2023-01-29T19:29:40.477Z,34.55
2023-01-29T19:33:42.541Z,35.38
2023-01-29T19:37:44.569Z,31.77
2023-01-29T19:41:46.258Z,34.17
2023-01-29T19:45:50.457Z,34.38
2023-01-29T19:49:52.512Z,31.25
2023-01-29T19:53:54.298Z,28.38
2023-01-29T19:57:57.979Z,31.35
2023-01-29T20:01:59.771Z,36.30
2023-01-29T20:06:03.754Z,30.52
2023-01-29T20:10:07.083Z,31.08
2023-01-29T20:14:10.884Z,34.65
2023-01-29T20:18:13.392Z,32.08
2023-01-29T20:22:15.529Z,34.50
2023-01-29T20:26:18.254Z,36.85
2023-01-29T20:30:20.296Z,33.40
2023-01-29T20:34:22.337Z,33.47
2023-01-29T20:38:25.984Z,36.28
2023-01-29T20:42:27.643Z,34.63
2023-01-29T20:46:29.936Z,31.25
2023-01-29T20:50:31.628Z,34.17
2023-01-29T20:54:34.388Z,32.63
2023-01-29T20:58:36.594Z,33.08
2023-01-29T21:02:38.250Z,35.42
2023-01-29T21:06:39.930Z,33.30
2023-01-29T21:10:43.412Z,34.47
2023-01-29T21:14:46.370Z,34.35
2023-01-29T21:18:48.041Z,32.28
2023-01-29T21:22:49.738Z,34.05
2023-01-29T21:26:51.760Z,31.02
2023-01-29T21:31:03.188Z,33.63
2023-01-29T21:35:05.148Z,32.10
2023-01-29T21:39:16.473Z,32.17
2023-01-29T21:43:18.326Z,30.50
2023-01-29T21:47:22.091Z,33.60
2023-01-29T21:51:23.775Z,33.08
2023-01-29T21:55:25.477Z,30.23
2023-01-29T21:59:27.137Z,35.35
2023-01-29T22:03:28.854Z,33.65
2023-01-29T22:07:30.563Z,31.52
2023-01-29T22:11:32.351Z,31.15
2023-01-29T22:15:34.381Z,30.60
2023-01-29T22:19:36.062Z,31.20
2023-01-29T22:23:38.026Z,33.92
2023-01-29T22:27:39.724Z,31.20
2023-01-29T22:31:41.366Z,32.05
2023-01-29T22:35:43.021Z,33.05
2023-01-29T22:39:44.703Z,30.15
2023-01-29T22:43:46.630Z,34.05
2023-01-29T22:47:48.258Z,35.13
2023-01-29T22:52:10.191Z,35.50
2023-01-29T22:56:12.219Z,35.03
2023-01-29T23:00:14.265Z,36.33
2023-01-29T23:04:16.005Z,41.17
2023-01-29T23:08:17.799Z,35.58
2023-01-29T23:12:19.567Z,38.33
2023-01-29T23:16:26.990Z,35.53
2023-01-29T23:20:29.815Z,36.30
2023-01-29T23:24:31.587Z,35.13
2023-01-29T23:28:33.297Z,42.08
2023-01-29T23:32:35.208Z,36.95
2023-01-29T23:36:36.984Z,40.83
2023-01-29T23:40:38.718Z,38.97
2023-01-29T23:44:40.510Z,39.03
2023-01-29T23:48:42.195Z,34.22
2023-01-29T23:52:43.868Z,36.42
2023-01-29T23:56:46.573Z,37.85
